Time;durP1;ratioP1;P1;durP2;ratioP2;P2;SDS_P1;SDS_P2;PMS_P1;PMS_P2;Temp;Humidity;BMP_temperature;BMP_pressure;BME280_temperature;BME280_humidity;BME280_pressure;Samples;Min_cycle;Max_cycle;Signal;HPM_P1;HPM_P2
2021/06/11 00:01:07;;;;;;;;;157.33;149.00;;;;;19.39;89.05;100554.13;5044277;28;8824;-79
2021/06/11 00:04:03;;;;;;;;;168.33;157.33;;;;;19.25;89.24;100558.91;5062160;28;8816;-79
2021/06/11 00:06:59;;;;;;;;;173.33;161.00;;;;;19.37;89.37;100561.34;5045452;28;8851;-79
2021/06/11 00:09:54;;;;;;;;;172.33;160.67;;;;;19.27;89.78;100556.50;5056736;28;8828;-79
2021/06/11 00:12:50;;;;;;;;;144.67;136.33;;;;;19.43;89.38;100565.38;5057932;28;8879;-79
2021/06/11 00:15:46;;;;;;;;;129.00;122.00;;;;;19.41;88.88;100564.97;5057989;28;8843;-79
2021/06/11 00:18:42;;;;;;;;;109.33;104.33;;;;;19.43;88.79;100562.56;5056746;28;8835;-79
2021/06/11 00:21:37;;;;;;;;;131.33;126.33;;;;;19.32;88.61;100564.50;5045628;28;8836;-79
2021/06/11 00:24:33;;;;;;;;;110.75;102.50;;;;;19.38;87.60;100565.75;5054770;28;8848;-79
2021/06/11 00:27:28;;;;;;;;;104.75;98.50;;;;;19.33;87.73;100571.75;5053976;28;12290;-79
2021/06/11 00:30:25;;;;;;;;;93.00;88.50;;;;;19.14;88.43;100579.25;5040633;28;11537;-79
2021/06/11 00:33:20;;;;;;;;;60.25;49.25;;;;;19.22;88.31;100573.69;5055350;28;11540;-79
2021/06/11 00:36:16;;;;;;;;;89.75;87.25;;;;;19.11;88.26;100577.25;5040459;28;12130;-79
2021/06/11 00:39:12;;;;;;;;;96.25;94.50;;;;;19.04;87.99;100582.81;5040331;28;11558;-79
2021/06/11 00:42:08;;;;;;;;;109.25;96.75;;;;;19.10;87.86;100584.03;5053929;28;11600;-78
2021/06/11 00:45:06;;;;;;;;;107.75;103.50;;;;;19.11;87.56;100577.25;5053991;28;11573;-79
2021/06/11 00:48:02;;;;;;;;;116.75;106.75;;;;;18.93;88.43;100579.09;5054364;28;11650;-79
2021/06/11 00:50:58;;;;;;;;;123.75;115.25;;;;;18.79;88.97;100587.44;5053973;28;11589;-79
2021/06/11 00:53:54;;;;;;;;;129.00;116.25;;;;;18.77;88.98;100589.81;5053572;28;11595;-79
2021/06/11 00:56:50;;;;;;;;;132.75;123.00;;;;;18.62;88.83;100580.47;5053433;28;11619;-79
2021/06/11 00:59:45;;;;;;;;;153.33;129.67;;;;;18.80;88.23;100587.03;5053397;28;11718;-79
2021/06/11 01:02:41;;;;;;;;;181.00;162.67;;;;;18.91;87.56;100575.09;5040193;28;11589;-79
2021/06/11 01:05:37;;;;;;;;;217.33;187.67;;;;;18.98;86.74;100575.16;5054958;28;8859;-79
2021/06/11 01:08:32;;;;;;;;;196.00;166.67;;;;;18.79;86.79;100567.84;5052102;28;8831;-79
2021/06/11 01:11:28;;;;;;;;;177.33;156.33;;;;;18.78;87.13;100577.41;5053348;28;8958;-79
2021/06/11 01:14:24;;;;;;;;;160.67;142.33;;;;;18.75;87.32;100567.78;5040175;28;9632;-79
2021/06/11 01:17:21;;;;;;;;;159.00;138.67;;;;;18.71;87.23;100571.75;5040010;28;8835;-79
2021/06/11 01:20:17;;;;;;;;;147.33;127.33;;;;;18.61;87.73;100574.06;5053211;28;8866;-79
2021/06/11 01:23:41;;;;;;;;;142.00;127.33;;;;;18.68;87.74;100575.34;5053258;28;8836;-79
2021/06/11 01:26:39;;;;;;;;;157.00;134.00;;;;;18.65;87.25;100576.09;5053627;28;12436;-79
2021/06/11 01:29:35;;;;;;;;;179.33;146.67;;;;;18.66;87.61;100572.13;5052838;28;11611;-79
2021/06/11 01:32:33;;;;;;;;;190.67;164.33;;;;;18.48;88.18;100574.75;5039912;28;8950;-79
2021/06/11 01:35:40;;;;;;;;;132.00;122.50;;;;;18.54;89.16;100582.41;5053179;28;8844;-79
2021/06/11 01:38:40;;;;;;;;;109.00;95.75;;;;;18.54;89.34;100587.19;5052872;28;11615;-79
2021/06/11 01:41:39;;;;;;;;;78.00;69.75;;;;;18.50;89.14;100589.97;5052792;28;11650;-79
2021/06/11 01:44:38;;;;;;;;;78.75;69.75;;;;;18.52;88.67;100590.38;5039327;28;11516;-79
2021/06/11 01:47:42;;;;;;;;;66.00;52.25;;;;;18.42;89.33;100593.91;5054036;28;11521;-79
2021/06/11 01:50:38;;;;;;;;;66.25;53.25;;;;;18.52;88.97;100596.00;5054112;28;10261;-79
2021/06/11 01:53:36;;;;;;;;;66.25;53.00;;;;;18.42;89.07;100591.13;5040115;28;10357;-79
2021/06/11 01:56:32;;;;;;;;;63.75;51.00;;;;;18.42;89.95;100605.13;5039029;28;10435;-79
2021/06/11 01:59:30;;;;;;;;;61.00;50.00;;;;;18.44;90.03;100607.53;5052288;28;10374;-79
2021/06/11 02:02:26;;;;;;;;;64.75;51.75;;;;;18.50;89.52;100608.78;5039434;28;10964;-79
2021/06/11 02:05:22;;;;;;;;;65.00;50.50;;;;;18.56;89.22;100608.03;5052550;28;10271;-79
2021/06/11 02:08:18;;;;;;;;;65.00;52.25;;;;;18.55;88.89;100605.59;5052354;28;10110;-79
2021/06/11 02:11:14;;;;;;;;;61.00;48.75;;;;;18.55;89.10;100612.00;5052236;28;10145;-79
2021/06/11 02:14:11;;;;;;;;;61.00;51.25;;;;;18.58;88.87;100622.47;5052578;28;10069;-79
2021/06/11 02:17:09;;;;;;;;;59.75;48.25;;;;;18.47;89.63;100612.34;5052072;28;9977;-79
2021/06/11 02:20:25;;;;;;;;;64.75;53.50;;;;;18.59;88.60;100609.25;5051342;28;10341;-78
2021/06/11 02:23:20;;;;;;;;;59.75;49.25;;;;;18.59;88.29;100615.66;5051935;28;10511;-79
2021/06/11 02:26:17;;;;;;;;;55.33;45.00;;;;;18.60;87.97;100617.25;5051998;28;10112;-79
2021/06/11 02:29:13;;;;;;;;;61.00;50.25;;;;;18.52;88.22;100628.78;5038761;28;9465;-79
2021/06/11 02:32:09;;;;;;;;;80.25;75.25;;;;;18.40;88.42;100615.88;5038713;28;10338;-79
2021/06/11 02:35:08;;;;;;;;;80.75;75.25;;;;;18.52;88.34;100624.00;5038597;28;11524;-79
2021/06/11 02:38:04;;;;;;;;;83.25;78.50;;;;;18.48;88.29;100623.16;5038265;28;11557;-79
2021/06/11 02:41:00;;;;;;;;;78.00;68.00;;;;;18.49;88.21;100619.19;5038461;28;11519;-79
2021/06/11 02:43:57;;;;;;;;;74.00;63.00;;;;;18.49;87.68;100621.19;5052044;28;11503;-79
2021/06/11 02:47:08;;;;;;;;;76.50;65.75;;;;;18.66;88.12;100623.34;5038615;28;11501;-80
2021/06/11 02:50:07;;;;;;;;;80.75;76.25;;;;;18.70;87.38;100617.75;5051696;28;11625;-78
2021/06/11 02:53:05;;;;;;;;;83.25;73.75;;;;;18.56;87.85;100618.44;5038909;28;11648;-79
2021/06/11 02:56:42;;;;;;;;;83.25;77.00;;;;;18.56;87.12;100619.25;5054718;28;11626;-79
2021/06/11 02:59:54;;;;;;;;;77.75;60.25;;;;;18.70;87.90;100620.56;5055500;28;12340;-79
2021/06/11 03:02:53;;;;;;;;;82.25;73.25;;;;;18.76;87.30;100617.03;5057121;28;11659;-79
2021/06/11 03:05:55;;;;;;;;;94.75;84.50;;;;;18.62;85.76;100614.88;5044841;28;11501;-78
2021/06/11 03:08:52;;;;;;;;;84.25;76.50;;;;;18.44;87.17;100615.91;5043809;28;11568;-79
2021/06/11 03:11:52;;;;;;;;;90.25;82.75;;;;;18.72;87.73;100629.41;5055402;28;11521;-79
2021/06/11 03:14:49;;;;;;;;;95.50;83.25;;;;;18.87;87.88;100626.31;5040326;28;11518;-79
2021/06/11 03:17:54;;;;;;;;;106.50;102.75;;;;;18.65;87.15;100620.91;5040310;28;11673;-79
2021/06/11 03:20:53;;;;;;;;;113.75;106.50;;;;;18.60;88.10;100613.66;5052097;28;11589;-78
2021/06/11 03:23:56;;;;;;;;;121.75;115.75;;;;;18.90;87.79;100619.13;5052575;28;11688;-79
2021/06/11 03:26:59;;;;;;;;;111.50;101.75;;;;;18.97;86.07;100630.41;5041824;28;11693;-79
2021/06/11 03:30:00;;;;;;;;;96.25;93.75;;;;;19.23;86.48;100622.94;5053562;28;11582;-79
2021/06/11 03:33:02;;;;;;;;;139.25;126.00;;;;;19.30;86.00;100614.56;5041404;28;11621;-79
2021/06/11 03:36:04;;;;;;;;;164.67;152.00;;;;;19.21;86.20;100619.72;5043506;28;11599;-79
2021/06/11 03:39:04;;;;;;;;;224.25;213.25;;;;;19.24;86.89;100621.75;5042316;28;8836;-79
2021/06/11 03:42:03;;;;;;;;;170.00;160.33;;;;;19.33;85.35;100616.63;5056065;28;8828;-79
2021/06/11 03:45:00;;;;;;;;;147.33;132.67;;;;;19.36;85.47;100621.44;5055467;28;8847;-78
2021/06/11 03:48:00;;;;;;;;;156.67;151.67;;;;;19.25;85.94;100624.19;5054800;28;11790;-78
2021/06/11 03:50:56;;;;;;;;;152.00;139.00;;;;;19.20;85.71;100620.94;5041632;28;8812;-79
2021/06/11 03:53:54;;;;;;;;;184.00;174.00;;;;;19.31;86.14;100622.59;5054762;28;8824;-78
2021/06/11 03:56:53;;;;;;;;;210.75;199.50;;;;;19.57;86.65;100629.97;5059780;28;8820;-78
2021/06/11 03:59:50;;;;;;;;;224.75;214.75;;;;;19.80;85.59;100631.69;5048923;28;8853;-78
2021/06/11 04:02:46;;;;;;;;;239.00;234.25;;;;;20.09;84.35;100627.78;5046919;28;8828;-77
2021/06/11 04:05:42;;;;;;;;;254.50;244.25;;;;;20.47;83.25;100631.06;5043206;28;8944;-78
2021/06/11 04:08:38;;;;;;;;;149.25;141.25;;;;;20.61;82.60;100624.66;5055381;28;8853;-78
2021/06/11 04:11:45;;;;;;;;;229.25;216.00;;;;;20.66;82.70;100639.09;5041541;28;8864;-78
2021/06/11 04:14:45;;;;;;;;;189.00;181.00;;;;;20.79;81.36;100628.28;5054735;28;9678;-79
2021/06/11 04:17:48;;;;;;;;;231.00;223.00;;;;;20.62;81.86;100629.84;5055493;28;8835;-79
2021/06/11 04:20:50;;;;;;;;;201.00;187.00;;;;;20.25;82.03;100633.03;5058995;28;8819;-79
2021/06/11 04:23:47;;;;;;;;;220.50;211.00;;;;;20.36;81.91;100628.22;5048262;28;8846;-79
2021/06/11 04:26:44;;;;;;;;;243.25;229.00;;;;;20.49;81.72;100625.84;5075261;28;8808;-79
2021/06/11 04:29:42;;;;;;;;;216.25;208.25;;;;;20.45;81.80;100625.84;5072543;28;8835;-80
2021/06/11 04:32:38;;;;;;;;;196.75;189.75;;;;;20.66;82.07;100629.88;5054516;28;9011;-80
2021/06/11 04:35:41;;;;;;;;;187.50;180.00;;;;;20.73;82.05;100632.69;5056059;28;8846;-79
2021/06/11 04:38:55;;;;;;;;;197.00;190.50;;;;;20.71;81.73;100621.84;5041585;28;9545;-80
2021/06/11 04:41:51;;;;;;;;;174.00;170.00;;;;;20.89;81.27;100633.06;5042254;28;8832;-80
2021/06/11 04:44:47;;;;;;;;;170.67;160.00;;;;;21.12;81.30;100626.22;5053958;28;8861;-80
2021/06/11 04:47:43;;;;;;;;;131.00;125.25;;;;;21.10;81.22;100627.44;5041788;28;8868;-81
2021/06/11 04:50:38;;;;;;;;;164.67;160.67;;;;;21.32;81.46;100636.66;5055282;28;11696;-80
2021/06/11 04:53:34;;;;;;;;;142.67;137.33;;;;;21.45;80.82;100634.19;5038536;28;8864;-80
2021/06/11 04:56:30;;;;;;;;;100.25;94.00;;;;;21.84;79.51;100634.06;5053605;28;11548;-78
2021/06/11 04:59:25;;;;;;;;;24.75;24.75;;;;;21.79;79.14;100633.69;5033632;28;11559;-82
2021/06/11 05:02:21;;;;;;;;;35.75;33.25;;;;;21.81;79.32;100640.50;5020518;28;8846;-82
2021/06/11 05:05:16;;;;;;;;;34.25;32.25;;;;;21.76;80.42;100637.31;5020655;28;8953;-79
2021/06/11 05:08:12;;;;;;;;;18.75;18.75;;;;;21.77;81.20;100647.34;5033341;28;8924;-82
2021/06/11 05:11:08;;;;;;;;;38.00;34.75;;;;;21.70;81.06;100636.13;5062407;28;8841;-82
2021/06/11 05:14:03;;;;;;;;;74.75;68.50;;;;;21.92;79.92;100640.44;5041583;28;8821;-83
2021/06/11 05:16:59;;;;;;;;;50.00;42.75;;;;;22.10;80.27;100643.22;5039980;28;10014;-82
2021/06/11 05:19:55;;;;;;;;;17.25;17.25;;;;;21.96;79.68;100640.44;5052706;28;8827;-82
2021/06/11 05:22:50;;;;;;;;;64.00;52.25;;;;;21.84;79.79;100639.69;5053178;28;8929;-82
2021/06/11 05:25:47;;;;;;;;;23.50;23.50;;;;;22.08;78.63;100637.19;5053120;28;9867;-81
2021/06/11 05:28:43;;;;;;;;;52.00;44.25;;;;;22.41;78.14;100639.41;5053018;28;8835;-82
2021/06/11 05:31:38;;;;;;;;;46.00;39.25;;;;;22.72;77.14;100639.56;5052665;28;8828;-82
2021/06/11 05:34:34;;;;;;;;;21.25;21.25;;;;;22.90;76.85;100643.06;5039705;28;8913;-82
2021/06/11 05:37:30;;;;;;;;;22.50;22.50;;;;;22.71;77.62;100643.63;5054770;28;8847;-80
2021/06/11 05:40:25;;;;;;;;;42.50;37.50;;;;;22.79;77.44;100641.53;5050216;28;8835;-80
2021/06/11 05:43:21;;;;;;;;;46.75;39.75;;;;;22.98;76.39;100641.78;5055592;28;9005;-81
2021/06/11 05:46:16;;;;;;;;;36.25;33.25;;;;;23.00;76.36;100645.00;5057817;28;8845;-80
2021/06/11 05:49:12;;;;;;;;;26.50;26.25;;;;;23.16;75.82;100644.44;5053262;28;8848;-81
2021/06/11 05:52:08;;;;;;;;;38.00;35.00;;;;;22.98;76.46;100641.78;5039148;28;8841;-81
2021/06/11 05:55:04;;;;;;;;;30.50;29.50;;;;;23.18;76.72;100655.31;5053282;28;8822;-80
2021/06/11 05:58:00;;;;;;;;;24.25;24.25;;;;;22.75;76.36;100653.63;5051678;28;8852;-79
2021/06/11 06:00:56;;;;;;;;;27.25;27.25;;;;;23.12;76.47;100656.97;5039351;28;8848;-79
2021/06/11 06:03:51;;;;;;;;;23.25;23.25;;;;;23.28;76.18;100660.84;5053760;28;8852;-79
2021/06/11 06:06:47;;;;;;;;;28.25;27.50;;;;;23.23;76.31;100658.47;5052313;28;8930;-79
2021/06/11 06:09:43;;;;;;;;;21.75;21.75;;;;;22.99;76.17;100656.69;5038652;28;8825;-79
2021/06/11 06:12:39;;;;;;;;;17.80;17.80;;;;;22.95;76.51;100664.38;5032289;28;8854;-81
2021/06/11 06:15:35;;;;;;;;;16.60;16.60;;;;;22.56;77.24;100648.56;5019664;28;8925;-80
2021/06/11 06:18:30;;;;;;;;;22.50;22.50;;;;;23.08;76.22;100654.19;5033225;28;8818;-78
2021/06/11 06:21:29;;;;;;;;;21.50;20.25;;;;;22.78;76.45;100654.84;5034513;28;8927;-80
2021/06/11 06:24:25;;;;;;;;;20.50;20.50;;;;;22.96;76.40;100663.16;5032043;28;8856;-80
2021/06/11 06:27:21;;;;;;;;;13.50;13.50;;;;;23.35;74.77;100659.16;5031374;28;8850;-78
2021/06/11 06:30:17;;;;;;;;;18.50;18.50;;;;;23.43;74.02;100661.47;5018522;28;8919;-81
2021/06/11 06:33:12;;;;;;;;;15.20;15.20;;;;;23.17;72.45;100673.47;5033168;28;8882;-81
2021/06/11 06:36:09;;;;;;;;;11.00;11.00;;;;;23.46;72.88;100665.47;5014942;28;8812;-80
2021/06/11 06:39:07;;;;;;;;;12.20;12.20;;;;;23.07;70.15;100677.16;5017393;28;8882;-76
2021/06/11 06:42:05;;;;;;;;;14.80;14.80;;;;;23.47;70.96;100665.09;5029745;28;8851;-81
2021/06/11 06:45:00;;;;;;;;;14.00;14.00;;;;;23.62;69.88;100664.94;5029040;28;8949;-79
2021/06/11 06:47:56;;;;;;;;;3.00;3.00;;;;;23.84;70.89;100669.91;5028145;28;9630;-80
2021/06/11 06:50:56;;;;;;;;;13.60;13.60;;;;;23.82;70.40;100680.03;5035066;28;8873;-76
2021/06/11 06:53:52;;;;;;;;;16.80;16.80;;;;;23.95;69.48;100669.78;5030920;28;9578;-78
2021/06/11 06:56:48;;;;;;;;;14.40;14.40;;;;;24.07;69.17;100666.38;5029419;28;8874;-79
2021/06/11 06:59:44;;;;;;;;;12.40;12.40;;;;;24.31;68.76;100672.13;5026615;28;8846;-79
2021/06/11 07:02:39;;;;;;;;;15.60;15.60;;;;;24.47;69.41;100671.53;5031104;28;8846;-78
2021/06/11 07:05:35;;;;;;;;;16.60;14.60;;;;;24.28;67.41;100675.78;5033190;28;8916;-79
2021/06/11 07:08:31;;;;;;;;;12.60;12.60;;;;;23.79;66.94;100673.22;5046342;28;8862;-78
2021/06/11 07:11:27;;;;;;;;;13.80;13.80;;;;;23.68;66.69;100678.16;5047121;28;8946;-76
2021/06/11 07:14:23;;;;;;;;;10.00;10.00;;;;;23.68;64.11;100681.00;5036250;28;8879;-78
2021/06/11 07:17:19;;;;;;;;;12.00;12.00;;;;;24.01;65.26;100672.94;5036957;28;8919;-78
2021/06/11 07:20:15;;;;;;;;;9.40;9.40;;;;;24.33;65.27;100676.16;5023827;28;8924;-75
2021/06/11 07:23:10;;;;;;;;;12.00;12.00;;;;;24.56;64.41;100669.75;5035505;28;8838;-78
2021/06/11 07:26:06;;;;;;;;;10.80;10.80;;;;;24.65;62.53;100666.38;5035355;28;8838;-78
2021/06/11 07:29:02;;;;;;;;;9.00;9.00;;;;;24.45;62.75;100666.28;5023581;28;8834;-79
2021/06/11 07:31:58;;;;;;;;;8.40;8.40;;;;;24.77;63.86;100670.66;5036647;28;8850;-76
2021/06/11 07:34:53;;;;;;;;;9.80;9.80;;;;;25.02;63.10;100659.72;5024249;28;8920;-79
2021/06/11 07:37:49;;;;;;;;;11.00;11.00;;;;;24.90;62.26;100671.63;5046404;28;8850;-77
2021/06/11 07:40:45;;;;;;;;;10.60;10.00;;;;;25.52;61.63;100676.59;5053945;28;9573;-79
2021/06/11 07:43:41;;;;;;;;;8.40;8.40;;;;;25.45;58.07;100670.25;5054704;28;8875;-80
2021/06/11 07:46:37;;;;;;;;;9.20;9.20;;;;;25.24;60.28;100657.34;5038375;28;8838;-79
2021/06/11 07:49:33;;;;;;;;;10.00;10.00;;;;;25.54;61.58;100655.56;5034828;28;8920;-79
2021/06/11 07:52:31;;;;;;;;;9.80;9.00;;;;;25.20;61.06;100659.41;5022189;28;8865;-79
2021/06/11 07:55:26;;;;;;;;;9.60;9.60;;;;;25.68;60.29;100658.09;5034392;28;8838;-79
2021/06/11 07:58:22;;;;;;;;;9.80;9.80;;;;;25.36;61.46;100658.72;5022075;28;8819;-78
2021/06/11 08:01:17;;;;;;;;;10.40;10.40;;;;;25.27;62.02;100653.63;5034913;28;9693;-76
2021/06/11 08:04:13;;;;;;;;;9.00;9.00;;;;;25.77;61.29;100662.00;5021796;28;8948;-78
2021/06/11 08:07:09;;;;;;;;;12.40;12.40;;;;;26.06;61.39;100656.50;5034002;28;8842;-78
2021/06/11 08:10:06;;;;;;;;;9.00;9.00;;;;;26.35;59.43;100650.19;5021181;28;8834;-78
2021/06/11 08:13:05;;;;;;;;;10.00;10.00;;;;;26.64;58.46;100639.00;5017245;28;8865;-78
2021/06/11 08:16:00;;;;;;;;;16.60;16.60;;;;;26.70;57.08;100645.75;5021144;28;8830;-75
2021/06/11 08:18:56;;;;;;;;;11.60;11.60;;;;;26.57;57.04;100648.47;5035301;28;8859;-76
2021/06/11 08:21:52;;;;;;;;;6.80;6.80;;;;;25.86;56.32;100655.72;5035104;28;8841;-78
2021/06/11 08:24:47;;;;;;;;;12.00;11.20;;;;;26.36;56.87;100653.81;5034308;28;8899;-78
2021/06/11 08:27:43;;;;;;;;;10.00;10.00;;;;;26.36;56.60;100653.81;5021071;28;8865;-77
2021/06/11 08:30:38;;;;;;;;;9.20;9.20;;;;;26.56;57.98;100648.91;5035473;28;8876;-75
2021/06/11 08:33:35;;;;;;;;;8.20;8.20;;;;;26.87;56.83;100657.88;5034996;28;8828;-76
2021/06/11 08:36:31;;;;;;;;;8.20;8.20;;;;;26.75;55.60;100653.69;5033741;28;8976;-77
2021/06/11 08:39:27;;;;;;;;;9.80;9.80;;;;;27.13;57.07;100645.47;5031050;28;8978;-76
2021/06/11 08:42:29;;;;;;;;;8.40;8.40;;;;;26.96;56.31;100629.66;5020872;28;9613;-77
2021/06/11 08:45:24;;;;;;;;;10.80;7.40;;;;;27.49;55.76;100623.81;5034634;28;8816;-77
2021/06/11 08:48:21;;;;;;;;;10.60;10.60;;;;;27.26;56.69;100619.97;5033030;28;8850;-76
2021/06/11 08:51:17;;;;;;;;;9.20;9.20;;;;;26.85;56.14;100627.13;5023199;28;8864;-77
2021/06/11 08:54:13;;;;;;;;;9.60;9.60;;;;;26.83;58.91;100620.28;5033739;28;8843;-74
2021/06/11 08:57:12;;;;;;;;;9.60;9.60;;;;;27.11;57.19;100615.94;5018489;28;8823;-76
2021/06/11 09:00:10;;;;;;;;;7.40;7.40;;;;;26.68;57.57;100605.66;5034413;28;8860;-78
2021/06/11 09:03:17;;;;;;;;;9.20;9.20;;;;;26.27;58.85;100609.06;5021627;28;8931;-76
2021/06/11 09:06:13;;;;;;;;;8.20;8.20;;;;;25.85;60.81;100616.53;5032380;28;8820;-78
2021/06/11 09:09:10;;;;;;;;;7.20;7.20;;;;;25.84;59.89;100612.88;5033816;28;8836;-76
2021/06/11 09:12:28;;;;;;;;;11.40;11.40;;;;;25.56;60.79;100625.56;5036499;28;8855;-77
2021/06/11 09:15:23;;;;;;;;;10.40;10.40;;;;;25.27;62.70;100622.50;5052205;28;8841;-76
2021/06/11 09:18:22;;;;;;;;;9.20;9.20;;;;;24.94;62.69;100642.06;5051792;28;9706;-77
2021/06/11 09:21:25;;;;;;;;;8.60;8.60;;;;;24.92;63.99;100649.38;5037547;28;8845;-79
2021/06/11 09:24:27;;;;;;;;;10.00;10.00;;;;;25.47;63.00;100651.63;5052196;28;8834;-76
2021/06/11 09:27:23;;;;;;;;;6.80;6.80;;;;;25.98;60.87;100657.09;5038128;28;8941;-76
2021/06/11 09:30:21;;;;;;;;;11.40;11.40;;;;;26.15;61.21;100643.75;5050792;28;8923;-77
2021/06/11 09:33:22;;;;;;;;;9.20;9.20;;;;;26.30;60.22;100628.84;5054780;28;8864;-75
2021/06/11 09:36:17;;;;;;;;;7.60;7.60;;;;;26.11;60.90;100632.50;5039189;28;8862;-73
2021/06/11 09:39:13;;;;;;;;;10.60;10.60;;;;;26.21;61.57;100631.47;5041308;28;8944;-75
2021/06/11 09:42:09;;;;;;;;;10.00;10.00;;;;;26.14;60.61;100630.81;5049565;28;9600;-75
2021/06/11 09:45:07;;;;;;;;;9.60;9.60;;;;;26.63;58.19;100623.22;5051744;28;8852;-76
2021/06/11 09:48:15;;;;;;;;;8.60;8.60;;;;;26.83;57.00;100618.22;5039062;28;10074;-77
2021/06/11 09:51:19;;;;;;;;;6.00;6.00;;;;;26.64;58.98;100612.69;5038768;28;8895;-76
2021/06/11 09:54:29;;;;;;;;;7.20;7.20;;;;;27.14;57.79;100613.00;5050661;28;8825;-76
2021/06/11 09:57:25;;;;;;;;;9.20;9.20;;;;;27.46;56.91;100613.38;5042028;28;8948;-79
2021/06/11 10:00:30;;;;;;;;;9.60;9.60;;;;;27.35;56.45;100605.94;5039875;28;8829;-79
2021/06/11 10:03:34;;;;;;;;;10.20;9.60;;;;;27.07;57.34;100618.09;5052058;28;8802;-78
2021/06/11 10:06:30;;;;;;;;;7.40;7.40;;;;;27.36;56.76;100626.59;5050309;28;8824;-79
2021/06/11 10:09:25;;;;;;;;;8.00;8.00;;;;;27.79;57.03;100633.94;5038755;28;8858;-74
2021/06/11 10:12:24;;;;;;;;;8.20;8.20;;;;;27.86;56.48;100630.88;5042495;28;8837;-75
2021/06/11 10:15:20;;;;;;;;;7.40;7.40;;;;;27.89;56.23;100627.13;5052047;28;8817;-74
2021/06/11 10:18:15;;;;;;;;;7.00;7.00;;;;;27.78;55.99;100635.97;5052482;28;8845;-77
2021/06/11 10:21:12;;;;;;;;;7.60;7.60;;;;;27.72;56.08;100639.81;5052551;28;8825;-77
2021/06/11 10:24:09;;;;;;;;;7.60;7.60;;;;;28.41;54.71;100634.50;5032283;28;8830;-77
2021/06/11 10:27:05;;;;;;;;;7.00;7.00;;;;;27.84;55.27;100622.03;5033794;28;9721;-80
2021/06/11 10:30:02;;;;;;;;;9.20;8.80;;;;;26.87;57.17;100629.50;5034937;28;8877;-76
2021/06/11 10:32:59;;;;;;;;;7.80;7.80;;;;;26.81;56.60;100629.25;5033989;28;9055;-78
2021/06/11 10:35:54;;;;;;;;;8.00;8.00;;;;;25.93;58.49;100626.47;5032377;28;8983;-77
2021/06/11 10:38:51;;;;;;;;;8.40;8.40;;;;;26.10;58.34;100621.63;5032363;28;8988;-78
2021/06/11 10:41:52;;;;;;;;;9.20;9.20;;;;;26.09;57.49;100632.16;5031924;28;8864;-79
2021/06/11 10:44:52;;;;;;;;;8.80;8.80;;;;;25.74;57.74;100645.84;5032241;28;8865;-79
2021/06/11 10:47:54;;;;;;;;;7.40;7.40;;;;;25.75;58.51;100638.16;5032155;28;9669;-77
2021/06/11 10:50:51;;;;;;;;;9.60;9.60;;;;;25.27;60.23;100638.69;5048843;28;8844;-78
2021/06/11 10:53:47;;;;;;;;;9.00;9.00;;;;;24.47;61.72;100649.72;5051848;28;8833;-76
2021/06/11 10:56:58;;;;;;;;;8.00;8.00;;;;;24.81;61.78;100665.72;5050701;28;9610;-75
2021/06/11 10:59:54;;;;;;;;;9.00;9.00;;;;;24.23;65.94;100660.13;5038757;28;9692;-78
2021/06/11 11:02:52;;;;;;;;;8.20;8.20;;;;;24.25;67.37;100656.88;5019524;28;8835;-76
2021/06/11 11:05:48;;;;;;;;;12.20;12.20;;;;;24.35;67.65;100641.81;5031865;28;8988;-78
2021/06/11 11:08:51;;;;;;;;;9.60;9.60;;;;;24.47;70.09;100631.94;5019856;28;8834;-78
2021/06/11 11:11:47;;;;;;;;;10.80;10.80;;;;;24.51;69.17;100630.66;5039858;28;8897;-77
2021/06/11 11:14:42;;;;;;;;;8.00;8.00;;;;;24.68;69.67;100626.72;5037724;28;8918;-77
2021/06/11 11:17:52;;;;;;;;;13.00;13.00;;;;;24.73;65.73;100625.47;5051127;28;8853;-76
2021/06/11 11:20:48;;;;;;;;;11.20;11.20;;;;;24.90;65.74;100627.16;5050049;28;8958;-77
2021/06/11 11:23:43;;;;;;;;;8.40;8.40;;;;;24.87;64.23;100635.72;5051146;28;8954;-75
2021/06/11 11:26:51;;;;;;;;;11.20;11.20;;;;;24.98;65.34;100641.19;5051335;28;8825;-75
2021/06/11 11:29:48;;;;;;;;;9.20;9.20;;;;;24.79;64.26;100637.09;5051115;28;8888;-76
2021/06/11 11:32:43;;;;;;;;;7.20;7.20;;;;;24.59;62.27;100642.66;5051138;28;8907;-77
2021/06/11 11:35:41;;;;;;;;;9.00;9.00;;;;;24.58;63.75;100655.19;5051753;28;8837;-77
2021/06/11 11:38:37;;;;;;;;;9.00;9.00;;;;;24.65;64.54;100658.69;5051081;28;8854;-77
2021/06/11 11:41:34;;;;;;;;;9.60;9.60;;;;;24.81;64.44;100665.72;5038036;28;8914;-75
2021/06/11 11:44:30;;;;;;;;;9.80;9.80;;;;;25.01;64.18;100672.25;5051202;28;8948;-76
2021/06/11 11:47:25;;;;;;;;;9.00;9.00;;;;;24.82;64.10;100687.91;5050766;28;8917;-76
2021/06/11 11:50:22;;;;;;;;;9.80;9.80;;;;;24.75;63.71;100687.22;5030994;28;8866;-79
2021/06/11 11:53:18;;;;;;;;;13.20;13.20;;;;;24.68;64.17;100693.78;5057463;28;9052;-77
2021/06/11 11:56:14;;;;;;;;;7.40;7.40;;;;;24.23;63.71;100707.34;5041450;28;8958;-75
2021/06/11 11:59:09;;;;;;;;;13.20;13.20;;;;;24.25;65.29;100707.75;5041296;28;8896;-77
2021/06/11 12:02:09;;;;;;;;;11.80;11.80;;;;;24.39;65.51;100705.53;5054628;28;8882;-77
2021/06/11 12:05:06;;;;;;;;;13.60;13.60;;;;;24.47;64.80;100696.97;5054435;28;8843;-78
2021/06/11 12:08:02;;;;;;;;;10.80;10.80;;;;;24.37;63.02;100698.69;5054853;28;8863;-76
2021/06/11 12:10:58;;;;;;;;;13.00;13.00;;;;;24.27;63.69;100689.13;5054415;28;8857;-73
2021/06/11 12:13:53;;;;;;;;;8.20;8.20;;;;;24.23;61.99;100688.38;5041455;28;8836;-75
2021/06/11 12:16:50;;;;;;;;;11.00;11.00;;;;;24.09;63.60;100699.88;5054465;28;8952;-74
2021/06/11 12:19:46;;;;;;;;;9.40;9.40;;;;;24.25;62.49;100687.97;5036665;28;8832;-77
2021/06/11 12:22:42;;;;;;;;;10.20;10.20;;;;;24.32;62.82;100685.03;5040881;28;9722;-76
2021/06/11 12:25:38;;;;;;;;;10.60;10.60;;;;;24.07;62.99;100669.19;5054478;28;8888;-75
2021/06/11 12:28:37;;;;;;;;;7.80;7.80;;;;;24.06;62.32;100659.13;5053999;28;9619;-79
2021/06/11 12:31:35;;;;;;;;;7.80;7.80;;;;;24.19;61.93;100650.88;5041662;28;8917;-79
2021/06/11 12:34:31;;;;;;;;;9.00;9.00;;;;;24.23;61.97;100639.53;5040011;28;8917;-78
2021/06/11 12:37:26;;;;;;;;;6.40;6.40;;;;;24.25;61.28;100649.19;5059469;28;8862;-76
2021/06/11 12:40:22;;;;;;;;;8.60;8.60;;;;;24.30;61.85;100639.44;5074212;28;8822;-78
2021/06/11 12:43:26;;;;;;;;;8.20;8.20;;;;;24.31;62.22;100632.56;5034372;28;9595;-77
2021/06/11 12:46:24;;;;;;;;;9.00;9.00;;;;;24.20;61.99;100629.09;5020952;28;8856;-78
2021/06/11 12:49:27;;;;;;;;;6.00;6.00;;;;;24.25;60.87;100628.63;5033888;28;8845;-77
2021/06/11 12:52:24;;;;;;;;;6.20;6.20;;;;;24.12;60.91;100629.19;5045875;28;8838;-79
2021/06/11 12:55:21;;;;;;;;;4.80;4.80;;;;;24.11;59.79;100643.75;5028516;28;8831;-78
2021/06/11 12:58:17;;;;;;;;;8.00;8.00;;;;;24.01;62.66;100644.69;5045805;28;8849;-77
2021/06/11 13:01:12;;;;;;;;;8.00;8.00;;;;;23.81;61.47;100658.66;5073693;28;8830;-75
2021/06/11 13:04:08;;;;;;;;;7.00;7.00;;;;;24.26;61.46;100653.63;5073639;28;8873;-78
2021/06/11 13:07:04;;;;;;;;;7.60;7.60;;;;;24.47;62.00;100663.84;5050103;28;8843;-77
2021/06/11 13:09:32;;;;;;;;;7.00;7.00;;;;;24.62;60.44;100670.88;5055368;28;8829;-77
2021/06/11 13:12:28;;;;;;;;;6.00;6.00;;;;;24.72;60.56;100663.44;5051476;28;8898;-77
2021/06/11 13:15:24;;;;;;;;;6.20;6.20;;;;;25.04;60.13;100665.75;5065668;28;8916;-78
2021/06/11 13:18:19;;;;;;;;;7.60;7.60;;;;;25.20;60.16;100665.06;5053225;28;8840;-77
2021/06/11 13:21:15;;;;;;;;;6.40;6.40;;;;;24.93;59.02;100665.13;5053328;28;8843;-75
2021/06/11 13:24:11;;;;;;;;;5.60;5.60;;;;;24.79;58.01;100659.72;5052984;28;8840;-77
2021/06/11 13:27:07;;;;;;;;;6.40;6.40;;;;;24.93;59.29;100659.47;5053042;28;8846;-75
2021/06/11 13:30:04;;;;;;;;;6.20;6.20;;;;;24.55;58.93;100659.69;5033629;28;8826;-78
2021/06/11 13:33:00;;;;;;;;;7.80;7.80;;;;;24.00;60.65;100657.19;5021411;28;8814;-76
2021/06/11 13:35:55;;;;;;;;;8.80;8.80;;;;;24.44;61.74;100667.50;5021223;28;8858;-75